sensor_id;sensor_type;location;lat;lon;timestamp;pressure;altitude;pressure_sealevel;temperature;humidity
62864;BME280;48954;59.950;11.014;2023-04-29T00:01:20;99495.15;;;0.48;53.33
62864;BME280;48954;59.950;11.014;2023-04-29T00:03:46;99495.48;;;0.41;53.21
62864;BME280;48954;59.950;11.014;2023-04-29T00:06:12;99491.70;;;0.35;53.59
62864;BME280;48954;59.950;11.014;2023-04-29T00:08:38;99486.45;;;0.31;53.73
62864;BME280;48954;59.950;11.014;2023-04-29T00:11:05;99482.34;;;0.27;54.02
62864;BME280;48954;59.950;11.014;2023-04-29T00:13:31;99485.42;;;0.23;54.13
62864;BME280;48954;59.950;11.014;2023-04-29T00:15:56;99482.70;;;0.17;54.18
62864;BME280;48954;59.950;11.014;2023-04-29T00:18:22;99482.83;;;0.13;54.41
62864;BME280;48954;59.950;11.014;2023-04-29T00:20:48;99485.16;;;0.11;54.56
62864;BME280;48954;59.950;11.014;2023-04-29T00:23:14;99482.70;;;0.08;55.01
62864;BME280;48954;59.950;11.014;2023-04-29T00:25:40;99483.63;;;0.05;55.11
62864;BME280;48954;59.950;11.014;2023-04-29T00:28:06;99477.48;;;-0.00;55.11
62864;BME280;48954;59.950;11.014;2023-04-29T00:30:32;99480.93;;;-0.02;55.36
62864;BME280;48954;59.950;11.014;2023-04-29T00:33:00;99478.01;;;-0.06;55.42
62864;BME280;48954;59.950;11.014;2023-04-29T00:35:26;99479.18;;;-0.08;55.43
62864;BME280;48954;59.950;11.014;2023-04-29T00:37:52;99471.54;;;-0.10;55.22
62864;BME280;48954;59.950;11.014;2023-04-29T00:40:18;99470.43;;;-0.12;55.64
62864;BME280;48954;59.950;11.014;2023-04-29T00:42:43;99468.06;;;-0.15;55.61
62864;BME280;48954;59.950;11.014;2023-04-29T00:45:11;99461.80;;;-0.19;55.86
62864;BME280;48954;59.950;11.014;2023-04-29T00:47:37;99460.12;;;-0.22;56.02
62864;BME280;48954;59.950;11.014;2023-04-29T00:50:04;99456.64;;;-0.27;56.28
62864;BME280;48954;59.950;11.014;2023-04-29T00:52:31;99456.82;;;-0.32;56.30
62864;BME280;48954;59.950;11.014;2023-04-29T00:54:57;99458.64;;;-0.35;56.52
62864;BME280;48954;59.950;11.014;2023-04-29T00:57:23;99455.03;;;-0.39;56.82
62864;BME280;48954;59.950;11.014;2023-04-29T00:59:49;99456.60;;;-0.42;56.96
62864;BME280;48954;59.950;11.014;2023-04-29T01:02:15;99456.36;;;-0.45;57.03
62864;BME280;48954;59.950;11.014;2023-04-29T01:04:41;99455.11;;;-0.47;57.04
62864;BME280;48954;59.950;11.014;2023-04-29T01:09:54;99445.47;;;-0.52;57.10
62864;BME280;48954;59.950;11.014;2023-04-29T01:12:35;99441.63;;;-0.55;57.40
62864;BME280;48954;59.950;11.014;2023-04-29T01:17:41;99439.19;;;-0.63;57.58
62864;BME280;48954;59.950;11.014;2023-04-29T01:20:09;99432.80;;;-0.65;57.94
62864;BME280;48954;59.950;11.014;2023-04-29T01:22:35;99433.45;;;-0.67;58.13
62864;BME280;48954;59.950;11.014;2023-04-29T01:25:01;99428.52;;;-0.71;58.01
62864;BME280;48954;59.950;11.014;2023-04-29T01:27:43;99428.69;;;-0.72;58.28
62864;BME280;48954;59.950;11.014;2023-04-29T01:30:31;99424.89;;;-0.75;58.56
62864;BME280;48954;59.950;11.014;2023-04-29T01:36:14;99423.25;;;-0.78;58.89
62864;BME280;48954;59.950;11.014;2023-04-29T01:41:52;99402.73;;;-0.78;59.16
62864;BME280;48954;59.950;11.014;2023-04-29T01:44:23;99400.34;;;-0.79;59.52
62864;BME280;48954;59.950;11.014;2023-04-29T01:46:52;99389.50;;;-0.80;59.51
62864;BME280;48954;59.950;11.014;2023-04-29T01:49:28;99386.70;;;-0.80;59.75
62864;BME280;48954;59.950;11.014;2023-04-29T01:51:54;99381.06;;;-0.79;60.16
62864;BME280;48954;59.950;11.014;2023-04-29T01:54:20;99381.52;;;-0.78;60.20
62864;BME280;48954;59.950;11.014;2023-04-29T01:56:47;99378.44;;;-0.78;60.34
62864;BME280;48954;59.950;11.014;2023-04-29T01:59:13;99375.45;;;-0.73;60.77
62864;BME280;48954;59.950;11.014;2023-04-29T02:01:39;99374.11;;;-0.70;60.78
62864;BME280;48954;59.950;11.014;2023-04-29T02:04:04;99369.64;;;-0.67;60.84
62864;BME280;48954;59.950;11.014;2023-04-29T02:06:30;99365.06;;;-0.65;60.88
62864;BME280;48954;59.950;11.014;2023-04-29T02:08:57;99364.03;;;-0.61;60.98
62864;BME280;48954;59.950;11.014;2023-04-29T02:11:23;99359.77;;;-0.58;61.20
62864;BME280;48954;59.950;11.014;2023-04-29T02:13:52;99358.67;;;-0.57;61.50
62864;BME280;48954;59.950;11.014;2023-04-29T02:16:18;99360.69;;;-0.54;61.40
62864;BME280;48954;59.950;11.014;2023-04-29T02:18:44;99357.10;;;-0.51;61.44
62864;BME280;48954;59.950;11.014;2023-04-29T02:21:09;99355.92;;;-0.49;61.18
62864;BME280;48954;59.950;11.014;2023-04-29T02:23:35;99348.38;;;-0.46;61.48
62864;BME280;48954;59.950;11.014;2023-04-29T02:26:01;99345.39;;;-0.45;61.42
62864;BME280;48954;59.950;11.014;2023-04-29T02:28:27;99345.02;;;-0.45;61.74
62864;BME280;48954;59.950;11.014;2023-04-29T02:30:53;99341.16;;;-0.44;61.91
62864;BME280;48954;59.950;11.014;2023-04-29T02:33:19;99340.14;;;-0.44;61.79
62864;BME280;48954;59.950;11.014;2023-04-29T02:35:44;99335.71;;;-0.45;61.82
62864;BME280;48954;59.950;11.014;2023-04-29T02:38:10;99335.43;;;-0.44;61.89
62864;BME280;48954;59.950;11.014;2023-04-29T02:40:43;99335.98;;;-0.44;62.07
62864;BME280;48954;59.950;11.014;2023-04-29T02:43:09;99328.55;;;-0.43;62.06
62864;BME280;48954;59.950;11.014;2023-04-29T02:45:35;99324.86;;;-0.42;62.06
62864;BME280;48954;59.950;11.014;2023-04-29T02:48:01;99321.66;;;-0.41;62.25
62864;BME280;48954;59.950;11.014;2023-04-29T02:50:28;99315.96;;;-0.39;62.72
62864;BME280;48954;59.950;11.014;2023-04-29T02:52:54;99312.33;;;-0.39;62.82
62864;BME280;48954;59.950;11.014;2023-04-29T02:55:21;99312.92;;;-0.37;62.77
62864;BME280;48954;59.950;11.014;2023-04-29T02:57:47;99299.55;;;-0.36;62.99
62864;BME280;48954;59.950;11.014;2023-04-29T03:00:13;99295.50;;;-0.32;62.96
62864;BME280;48954;59.950;11.014;2023-04-29T03:02:38;99294.64;;;-0.29;63.21
62864;BME280;48954;59.950;11.014;2023-04-29T03:05:04;99294.55;;;-0.25;63.11
62864;BME280;48954;59.950;11.014;2023-04-29T03:07:31;99290.92;;;-0.22;63.31
62864;BME280;48954;59.950;11.014;2023-04-29T03:09:57;99295.46;;;-0.18;63.54
62864;BME280;48954;59.950;11.014;2023-04-29T03:12:23;99289.40;;;-0.15;63.74
62864;BME280;48954;59.950;11.014;2023-04-29T03:14:49;99290.77;;;-0.11;63.66
62864;BME280;48954;59.950;11.014;2023-04-29T03:17:15;99285.30;;;-0.08;63.98
62864;BME280;48954;59.950;11.014;2023-04-29T03:19:40;99282.91;;;-0.04;63.88
62864;BME280;48954;59.950;11.014;2023-04-29T03:22:06;99277.32;;;-0.01;63.80
62864;BME280;48954;59.950;11.014;2023-04-29T03:24:32;99270.63;;;0.01;63.67
62864;BME280;48954;59.950;11.014;2023-04-29T03:26:58;99270.70;;;0.00;63.81
62864;BME280;48954;59.950;11.014;2023-04-29T03:29:24;99266.14;;;0.04;63.77
62864;BME280;48954;59.950;11.014;2023-04-29T03:31:49;99267.98;;;0.07;63.96
62864;BME280;48954;59.950;11.014;2023-04-29T03:34:15;99261.59;;;0.10;64.40
62864;BME280;48954;59.950;11.014;2023-04-29T03:36:41;99257.80;;;0.20;65.05
62864;BME280;48954;59.950;11.014;2023-04-29T03:39:07;99255.39;;;0.32;65.74
62864;BME280;48954;59.950;11.014;2023-04-29T03:41:33;99250.77;;;0.45;65.86
62864;BME280;48954;59.950;11.014;2023-04-29T03:43:59;99248.52;;;0.61;66.36
62864;BME280;48954;59.950;11.014;2023-04-29T03:46:26;99239.48;;;0.74;66.20
62864;BME280;48954;59.950;11.014;2023-04-29T03:48:52;99235.01;;;0.89;66.65
62864;BME280;48954;59.950;11.014;2023-04-29T03:51:18;99228.06;;;1.03;66.67
62864;BME280;48954;59.950;11.014;2023-04-29T03:53:43;99224.98;;;1.17;66.83
62864;BME280;48954;59.950;11.014;2023-04-29T03:56:09;99214.48;;;1.30;66.82
62864;BME280;48954;59.950;11.014;2023-04-29T03:58:35;99212.68;;;1.42;66.68
62864;BME280;48954;59.950;11.014;2023-04-29T04:01:01;99209.74;;;1.55;66.64
62864;BME280;48954;59.950;11.014;2023-04-29T04:03:27;99199.39;;;1.66;66.49
62864;BME280;48954;59.950;11.014;2023-04-29T04:05:53;99188.68;;;1.77;66.41
62864;BME280;48954;59.950;11.014;2023-04-29T04:08:19;99183.91;;;1.86;66.44
62864;BME280;48954;59.950;11.014;2023-04-29T04:10:44;99178.25;;;1.94;66.27
62864;BME280;48954;59.950;11.014;2023-04-29T04:13:11;99173.90;;;2.02;66.16
62864;BME280;48954;59.950;11.014;2023-04-29T04:15:37;99174.89;;;2.10;66.02
62864;BME280;48954;59.950;11.014;2023-04-29T04:18:03;99173.13;;;2.17;66.04
62864;BME280;48954;59.950;11.014;2023-04-29T04:20:30;99170.02;;;2.24;65.90
62864;BME280;48954;59.950;11.014;2023-04-29T04:22:56;99167.20;;;2.30;65.74
62864;BME280;48954;59.950;11.014;2023-04-29T04:25:22;99152.88;;;2.36;65.70
62864;BME280;48954;59.950;11.014;2023-04-29T04:27:48;99149.73;;;2.43;65.79
62864;BME280;48954;59.950;11.014;2023-04-29T04:30:14;99142.69;;;2.49;65.72
62864;BME280;48954;59.950;11.014;2023-04-29T04:32:39;99138.77;;;2.55;65.71
62864;BME280;48954;59.950;11.014;2023-04-29T04:35:05;99137.45;;;2.61;65.53
62864;BME280;48954;59.950;11.014;2023-04-29T04:37:33;99133.23;;;2.65;65.40
62864;BME280;48954;59.950;11.014;2023-04-29T04:39:59;99124.41;;;2.71;65.42
62864;BME280;48954;59.950;11.014;2023-04-29T04:42:25;99114.73;;;2.75;65.37
62864;BME280;48954;59.950;11.014;2023-04-29T04:44:52;99113.80;;;2.79;65.22
62864;BME280;48954;59.950;11.014;2023-04-29T04:47:18;99117.86;;;2.84;65.36
62864;BME280;48954;59.950;11.014;2023-04-29T04:49:43;99123.61;;;2.91;65.31
62864;BME280;48954;59.950;11.014;2023-04-29T04:52:09;99117.75;;;2.97;65.37
62864;BME280;48954;59.950;11.014;2023-04-29T04:54:35;99112.88;;;3.04;65.21
62864;BME280;48954;59.950;11.014;2023-04-29T04:57:01;99109.95;;;3.10;65.14
62864;BME280;48954;59.950;11.014;2023-04-29T04:59:27;99105.79;;;3.17;65.29
62864;BME280;48954;59.950;11.014;2023-04-29T05:01:52;99108.33;;;3.24;65.37
62864;BME280;48954;59.950;11.014;2023-04-29T05:04:18;99098.95;;;3.32;65.40
62864;BME280;48954;59.950;11.014;2023-04-29T05:06:44;99091.61;;;3.41;65.51
62864;BME280;48954;59.950;11.014;2023-04-29T05:09:10;99089.91;;;3.49;65.63
62864;BME280;48954;59.950;11.014;2023-04-29T05:11:36;99093.86;;;3.55;65.63
62864;BME280;48954;59.950;11.014;2023-04-29T05:14:01;99094.07;;;3.58;65.97
62864;BME280;48954;59.950;11.014;2023-04-29T05:16:28;99089.13;;;3.63;65.88
62864;BME280;48954;59.950;11.014;2023-04-29T05:18:53;99078.35;;;3.65;66.00
62864;BME280;48954;59.950;11.014;2023-04-29T05:21:19;99074.86;;;3.70;66.14
62864;BME280;48954;59.950;11.014;2023-04-29T05:23:45;99067.17;;;3.72;66.18
62864;BME280;48954;59.950;11.014;2023-04-29T05:26:11;99063.45;;;3.76;66.15
62864;BME280;48954;59.950;11.014;2023-04-29T05:28:37;99065.92;;;3.80;66.11
62864;BME280;48954;59.950;11.014;2023-04-29T05:31:05;99062.53;;;3.82;66.28
62864;BME280;48954;59.950;11.014;2023-04-29T05:33:31;99062.16;;;3.85;66.11
62864;BME280;48954;59.950;11.014;2023-04-29T05:35:57;99061.94;;;3.87;66.01
62864;BME280;48954;59.950;11.014;2023-04-29T05:38:23;99057.70;;;3.88;66.08
62864;BME280;48954;59.950;11.014;2023-04-29T05:40:49;99054.88;;;3.90;66.00
62864;BME280;48954;59.950;11.014;2023-04-29T05:43:15;99057.52;;;3.92;66.12
62864;BME280;48954;59.950;11.014;2023-04-29T05:45:41;99052.39;;;3.94;65.99
62864;BME280;48954;59.950;11.014;2023-04-29T05:48:06;99045.16;;;3.96;65.88
62864;BME280;48954;59.950;11.014;2023-04-29T05:50:33;99037.98;;;3.99;65.69
62864;BME280;48954;59.950;11.014;2023-04-29T05:52:59;99037.25;;;4.05;65.76
62864;BME280;48954;59.950;11.014;2023-04-29T05:55:28;99032.81;;;4.11;65.59
62864;BME280;48954;59.950;11.014;2023-04-29T05:57:54;99026.87;;;4.14;65.48
62864;BME280;48954;59.950;11.014;2023-04-29T06:00:20;99023.88;;;4.18;65.17
62864;BME280;48954;59.950;11.014;2023-04-29T06:02:46;99021.16;;;4.24;65.33
62864;BME280;48954;59.950;11.014;2023-04-29T06:05:12;99017.00;;;4.33;64.94
62864;BME280;48954;59.950;11.014;2023-04-29T06:07:38;99021.83;;;4.39;64.63
62864;BME280;48954;59.950;11.014;2023-04-29T06:10:04;99017.78;;;4.44;64.56
62864;BME280;48954;59.950;11.014;2023-04-29T06:12:39;99013.60;;;4.53;64.26
62864;BME280;48954;59.950;11.014;2023-04-29T06:15:05;99013.88;;;4.59;64.11
62864;BME280;48954;59.950;11.014;2023-04-29T06:17:32;99007.65;;;4.66;63.88
62864;BME280;48954;59.950;11.014;2023-04-29T06:19:59;99000.64;;;4.71;63.64
62864;BME280;48954;59.950;11.014;2023-04-29T06:22:26;98996.11;;;4.75;63.22
62864;BME280;48954;59.950;11.014;2023-04-29T06:24:52;98995.21;;;4.78;63.23
62864;BME280;48954;59.950;11.014;2023-04-29T06:27:19;98990.33;;;4.84;63.20
62864;BME280;48954;59.950;11.014;2023-04-29T06:29:45;98989.49;;;4.91;63.26
62864;BME280;48954;59.950;11.014;2023-04-29T06:32:12;98980.34;;;5.02;62.97
62864;BME280;48954;59.950;11.014;2023-04-29T06:34:38;98972.00;;;5.12;62.72
62864;BME280;48954;59.950;11.014;2023-04-29T06:37:05;98968.73;;;5.19;62.43
62864;BME280;48954;59.950;11.014;2023-04-29T06:39:32;98962.53;;;5.21;62.07
62864;BME280;48954;59.950;11.014;2023-04-29T06:41:59;98968.61;;;5.20;62.04
62864;BME280;48954;59.950;11.014;2023-04-29T06:44:25;98966.38;;;5.19;61.60
62864;BME280;48954;59.950;11.014;2023-04-29T06:46:52;98964.61;;;5.20;61.36
62864;BME280;48954;59.950;11.014;2023-04-29T06:49:19;98958.60;;;5.22;61.16
62864;BME280;48954;59.950;11.014;2023-04-29T06:51:46;98958.47;;;5.23;60.88
62864;BME280;48954;59.950;11.014;2023-04-29T06:54:13;98952.13;;;5.24;61.02
62864;BME280;48954;59.950;11.014;2023-04-29T06:56:40;98948.98;;;5.28;60.76
62864;BME280;48954;59.950;11.014;2023-04-29T06:59:06;98947.85;;;5.32;60.99
62864;BME280;48954;59.950;11.014;2023-04-29T07:01:32;98947.02;;;5.40;60.85
62864;BME280;48954;59.950;11.014;2023-04-29T07:03:59;98944.05;;;5.51;60.62
62864;BME280;48954;59.950;11.014;2023-04-29T07:06:25;98943.71;;;5.66;60.15
62864;BME280;48954;59.950;11.014;2023-04-29T07:08:53;98936.63;;;5.82;59.64
62864;BME280;48954;59.950;11.014;2023-04-29T07:11:20;98932.10;;;5.99;59.08
62864;BME280;48954;59.950;11.014;2023-04-29T07:13:46;98928.31;;;6.08;58.16
62864;BME280;48954;59.950;11.014;2023-04-29T07:16:14;98924.09;;;6.17;58.10
62864;BME280;48954;59.950;11.014;2023-04-29T07:18:41;98919.13;;;6.24;57.56
62864;BME280;48954;59.950;11.014;2023-04-29T07:21:08;98915.44;;;6.30;56.88
62864;BME280;48954;59.950;11.014;2023-04-29T07:23:34;98915.94;;;6.30;56.40
62864;BME280;48954;59.950;11.014;2023-04-29T07:26:10;98913.80;;;6.32;56.07
62864;BME280;48954;59.950;11.014;2023-04-29T07:28:38;98910.29;;;6.35;55.43
62864;BME280;48954;59.950;11.014;2023-04-29T07:31:05;98906.34;;;6.36;55.67
62864;BME280;48954;59.950;11.014;2023-04-29T07:33:32;98902.20;;;6.42;55.75
62864;BME280;48954;59.950;11.014;2023-04-29T07:36:00;98900.60;;;6.51;55.62
62864;BME280;48954;59.950;11.014;2023-04-29T07:38:26;98894.95;;;6.56;54.73
62864;BME280;48954;59.950;11.014;2023-04-29T07:40:54;98893.13;;;6.57;55.08
62864;BME280;48954;59.950;11.014;2023-04-29T07:43:20;98891.20;;;6.65;54.66
62864;BME280;48954;59.950;11.014;2023-04-29T07:45:47;98887.73;;;6.70;54.27
62864;BME280;48954;59.950;11.014;2023-04-29T07:48:14;98880.55;;;6.74;53.91
62864;BME280;48954;59.950;11.014;2023-04-29T07:50:40;98880.44;;;6.76;53.68
62864;BME280;48954;59.950;11.014;2023-04-29T07:53:07;98877.46;;;6.75;53.47
62864;BME280;48954;59.950;11.014;2023-04-29T07:55:36;98872.04;;;6.77;53.56
62864;BME280;48954;59.950;11.014;2023-04-29T07:58:05;98858.63;;;6.78;53.04
62864;BME280;48954;59.950;11.014;2023-04-29T08:00:32;98855.95;;;6.70;52.41
62864;BME280;48954;59.950;11.014;2023-04-29T08:02:58;98854.17;;;6.57;52.25
62864;BME280;48954;59.950;11.014;2023-04-29T08:05:25;98856.54;;;6.49;52.38
62864;BME280;48954;59.950;11.014;2023-04-29T08:07:51;98855.11;;;6.38;52.32
62864;BME280;48954;59.950;11.014;2023-04-29T08:10:18;98855.40;;;6.31;52.10
62864;BME280;48954;59.950;11.014;2023-04-29T08:12:45;98851.35;;;6.48;51.80
62864;BME280;48954;59.950;11.014;2023-04-29T08:15:12;98836.80;;;6.72;51.39
62864;BME280;48954;59.950;11.014;2023-04-29T08:17:38;98838.72;;;7.03;51.01
62864;BME280;48954;59.950;11.014;2023-04-29T08:20:05;98836.20;;;7.38;50.51
62864;BME280;48954;59.950;11.014;2023-04-29T08:22:33;98823.98;;;7.70;49.85
62864;BME280;48954;59.950;11.014;2023-04-29T08:24:59;98826.59;;;8.02;49.44
62864;BME280;48954;59.950;11.014;2023-04-29T08:27:26;98827.86;;;8.25;49.12
62864;BME280;48954;59.950;11.014;2023-04-29T08:29:52;98820.56;;;8.42;48.60
62864;BME280;48954;59.950;11.014;2023-04-29T08:32:19;98822.20;;;8.56;48.20
62864;BME280;48954;59.950;11.014;2023-04-29T08:34:46;98820.38;;;8.75;48.24
62864;BME280;48954;59.950;11.014;2023-04-29T08:37:12;98823.39;;;8.95;48.26
62864;BME280;48954;59.950;11.014;2023-04-29T08:39:39;98824.41;;;9.19;47.58
62864;BME280;48954;59.950;11.014;2023-04-29T08:42:09;98821.91;;;9.31;46.70
62864;BME280;48954;59.950;11.014;2023-04-29T08:44:36;98817.41;;;9.42;46.83
62864;BME280;48954;59.950;11.014;2023-04-29T08:47:03;98821.32;;;9.68;46.54
62864;BME280;48954;59.950;11.014;2023-04-29T08:49:30;98821.71;;;9.75;45.30
62864;BME280;48954;59.950;11.014;2023-04-29T08:51:58;98818.30;;;9.87;45.83
62864;BME280;48954;59.950;11.014;2023-04-29T08:54:25;98815.85;;;10.11;44.99
62864;BME280;48954;59.950;11.014;2023-04-29T08:56:52;98809.23;;;10.15;44.42
62864;BME280;48954;59.950;11.014;2023-04-29T08:59:20;98806.27;;;10.18;44.29
62864;BME280;48954;59.950;11.014;2023-04-29T09:01:49;98799.89;;;10.22;44.25
62864;BME280;48954;59.950;11.014;2023-04-29T09:06:46;98790.73;;;10.55;43.17
62864;BME280;48954;59.950;11.014;2023-04-29T09:09:14;98786.10;;;10.69;43.65
62864;BME280;48954;59.950;11.014;2023-04-29T09:11:41;98784.23;;;10.98;43.18
62864;BME280;48954;59.950;11.014;2023-04-29T09:14:07;98786.14;;;11.20;42.72
62864;BME280;48954;59.950;11.014;2023-04-29T09:16:34;98783.71;;;11.45;42.35
62864;BME280;48954;59.950;11.014;2023-04-29T09:19:00;98782.89;;;11.57;41.18
62864;BME280;48954;59.950;11.014;2023-04-29T09:21:28;98776.63;;;11.71;41.22
62864;BME280;48954;59.950;11.014;2023-04-29T09:23:59;98777.73;;;12.00;40.69
62864;BME280;48954;59.950;11.014;2023-04-29T09:26:27;98780.27;;;12.13;39.89
62864;BME280;48954;59.950;11.014;2023-04-29T09:29:11;98776.31;;;12.23;39.16
62864;BME280;48954;59.950;11.014;2023-04-29T09:31:38;98772.06;;;12.07;38.42
62864;BME280;48954;59.950;11.014;2023-04-29T09:34:05;98774.41;;;11.63;38.16
62864;BME280;48954;59.950;11.014;2023-04-29T09:36:40;98777.69;;;11.34;38.42
62864;BME280;48954;59.950;11.014;2023-04-29T09:39:08;98781.80;;;11.18;38.08
62864;BME280;48954;59.950;11.014;2023-04-29T09:41:35;98793.05;;;10.63;39.13
62864;BME280;48954;59.950;11.014;2023-04-29T09:44:03;98795.53;;;10.03;39.76
62864;BME280;48954;59.950;11.014;2023-04-29T09:46:35;98793.81;;;9.64;40.17
62864;BME280;48954;59.950;11.014;2023-04-29T09:49:02;98787.98;;;9.41;40.32
62864;BME280;48954;59.950;11.014;2023-04-29T09:51:29;98785.92;;;9.39;40.74
62864;BME280;48954;59.950;11.014;2023-04-29T09:53:56;98781.99;;;9.38;40.70
62864;BME280;48954;59.950;11.014;2023-04-29T09:56:22;98774.06;;;9.30;40.63
62864;BME280;48954;59.950;11.014;2023-04-29T09:58:49;98772.17;;;9.15;40.75
62864;BME280;48954;59.950;11.014;2023-04-29T10:01:15;98768.60;;;9.00;40.56
62864;BME280;48954;59.950;11.014;2023-04-29T10:03:42;98791.96;;;8.83;40.83
62864;BME280;48954;59.950;11.014;2023-04-29T10:06:09;98802.06;;;8.61;41.72
62864;BME280;48954;59.950;11.014;2023-04-29T10:08:37;98803.65;;;8.38;42.29
62864;BME280;48954;59.950;11.014;2023-04-29T10:11:04;98798.09;;;8.09;42.60
62864;BME280;48954;59.950;11.014;2023-04-29T10:13:33;98794.79;;;7.96;42.78
62864;BME280;48954;59.950;11.014;2023-04-29T10:18:53;98789.02;;;7.90;42.67
62864;BME280;48954;59.950;11.014;2023-04-29T10:21:27;98781.42;;;8.01;42.71
62864;BME280;48954;59.950;11.014;2023-04-29T10:23:55;98777.88;;;8.47;42.69
62864;BME280;48954;59.950;11.014;2023-04-29T10:26:26;98763.23;;;9.30;42.25
62864;BME280;48954;59.950;11.014;2023-04-29T10:28:59;98759.44;;;10.33;41.94
62864;BME280;48954;59.950;11.014;2023-04-29T10:31:31;98757.48;;;11.14;39.94
62864;BME280;48954;59.950;11.014;2023-04-29T10:33:58;98757.85;;;11.51;39.33
62864;BME280;48954;59.950;11.014;2023-04-29T10:36:24;98756.86;;;11.97;38.57
62864;BME280;48954;59.950;11.014;2023-04-29T10:38:58;98754.55;;;11.83;37.91
62864;BME280;48954;59.950;11.014;2023-04-29T10:41:32;98773.91;;;11.31;38.17
62864;BME280;48954;59.950;11.014;2023-04-29T10:43:59;98773.55;;;10.74;38.29
62864;BME280;48954;59.950;11.014;2023-04-29T10:46:28;98771.65;;;10.57;38.72
62864;BME280;48954;59.950;11.014;2023-04-29T10:49:02;98768.65;;;10.94;38.27
62864;BME280;48954;59.950;11.014;2023-04-29T10:54:20;98757.65;;;11.96;37.30
62864;BME280;48954;59.950;11.014;2023-04-29T10:57:06;98768.29;;;11.73;36.95
62864;BME280;48954;59.950;11.014;2023-04-29T10:59:46;98771.02;;;10.97;36.92
62864;BME280;48954;59.950;11.014;2023-04-29T11:02:12;98772.33;;;10.65;37.14
62864;BME280;48954;59.950;11.014;2023-04-29T11:05:10;98774.01;;;11.14;36.47
62864;BME280;48954;59.950;11.014;2023-04-29T11:07:41;98766.38;;;11.61;36.10
62864;BME280;48954;59.950;11.014;2023-04-29T11:10:08;98765.59;;;12.02;35.25
62864;BME280;48954;59.950;11.014;2023-04-29T11:12:46;98762.75;;;12.58;34.50
62864;BME280;48954;59.950;11.014;2023-04-29T11:15:17;98760.10;;;12.82;34.48
62864;BME280;48954;59.950;11.014;2023-04-29T11:17:45;98759.66;;;12.64;34.27
62864;BME280;48954;59.950;11.014;2023-04-29T11:20:15;98754.63;;;12.60;34.72
62864;BME280;48954;59.950;11.014;2023-04-29T11:22:50;98764.15;;;12.63;35.39
62864;BME280;48954;59.950;11.014;2023-04-29T11:25:17;98763.16;;;12.30;34.88
62864;BME280;48954;59.950;11.014;2023-04-29T11:27:44;98765.32;;;11.79;35.02
62864;BME280;48954;59.950;11.014;2023-04-29T11:30:12;98778.34;;;11.35;35.53
62864;BME280;48954;59.950;11.014;2023-04-29T11:32:40;98782.61;;;11.46;35.31
62864;BME280;48954;59.950;11.014;2023-04-29T11:35:14;98788.71;;;11.36;35.38
62864;BME280;48954;59.950;11.014;2023-04-29T11:37:43;98793.10;;;11.78;35.66
62864;BME280;48954;59.950;11.014;2023-04-29T11:40:18;98796.61;;;11.96;35.11
62864;BME280;48954;59.950;11.014;2023-04-29T11:42:49;98794.17;;;11.92;34.93
62864;BME280;48954;59.950;11.014;2023-04-29T11:45:21;98797.65;;;12.08;34.90
62864;BME280;48954;59.950;11.014;2023-04-29T11:47:49;98803.58;;;12.55;35.33
62864;BME280;48954;59.950;11.014;2023-04-29T11:50:20;98814.20;;;12.45;34.60
62864;BME280;48954;59.950;11.014;2023-04-29T11:52:51;98822.17;;;12.33;34.62
62864;BME280;48954;59.950;11.014;2023-04-29T11:55:20;98825.31;;;12.51;34.74
62864;BME280;48954;59.950;11.014;2023-04-29T11:57:51;98824.68;;;13.42;34.09
62864;BME280;48954;59.950;11.014;2023-04-29T12:00:18;98832.09;;;13.24;33.69
62864;BME280;48954;59.950;11.014;2023-04-29T12:02:46;98837.68;;;12.73;33.87
62864;BME280;48954;59.950;11.014;2023-04-29T12:05:24;98842.52;;;13.02;33.21
62864;BME280;48954;59.950;11.014;2023-04-29T12:07:53;98848.98;;;13.42;32.52
62864;BME280;48954;59.950;11.014;2023-04-29T12:10:22;98849.15;;;13.09;32.79
62864;BME280;48954;59.950;11.014;2023-04-29T12:12:51;98855.42;;;12.45;33.35
62864;BME280;48954;59.950;11.014;2023-04-29T12:15:18;98859.11;;;11.94;33.50
62864;BME280;48954;59.950;11.014;2023-04-29T12:17:45;98892.36;;;11.33;34.86
62864;BME280;48954;59.950;11.014;2023-04-29T12:20:14;98913.15;;;10.36;37.68
62864;BME280;48954;59.950;11.014;2023-04-29T12:22:42;98939.21;;;9.51;39.25
62864;BME280;48954;59.950;11.014;2023-04-29T12:25:16;98968.33;;;8.85;41.55
62864;BME280;48954;59.950;11.014;2023-04-29T12:27:42;98975.39;;;8.16;42.42
62864;BME280;48954;59.950;11.014;2023-04-29T12:30:12;99003.20;;;7.69;44.11
62864;BME280;48954;59.950;11.014;2023-04-29T12:32:40;99017.09;;;7.33;45.00
62864;BME280;48954;59.950;11.014;2023-04-29T12:35:16;99028.73;;;7.20;45.88
62864;BME280;48954;59.950;11.014;2023-04-29T12:37:42;99034.80;;;7.29;46.49
62864;BME280;48954;59.950;11.014;2023-04-29T12:40:18;99041.96;;;7.41;46.85
62864;BME280;48954;59.950;11.014;2023-04-29T12:42:45;99046.48;;;7.40;47.89
62864;BME280;48954;59.950;11.014;2023-04-29T12:45:29;99047.88;;;7.30;48.33
62864;BME280;48954;59.950;11.014;2023-04-29T12:47:56;99048.30;;;7.15;48.39
62864;BME280;48954;59.950;11.014;2023-04-29T12:50:41;99040.06;;;6.91;49.11
62864;BME280;48954;59.950;11.014;2023-04-29T12:53:10;99038.60;;;7.15;50.07
62864;BME280;48954;59.950;11.014;2023-04-29T12:55:37;99036.91;;;7.48;49.83
62864;BME280;48954;59.950;11.014;2023-04-29T12:58:04;99036.23;;;7.70;49.72
62864;BME280;48954;59.950;11.014;2023-04-29T13:00:34;99035.04;;;7.91;49.06
62864;BME280;48954;59.950;11.014;2023-04-29T13:03:03;99032.86;;;8.15;48.75
62864;BME280;48954;59.950;11.014;2023-04-29T13:05:30;99025.95;;;8.36;48.29
62864;BME280;48954;59.950;11.014;2023-04-29T13:07:56;99027.90;;;8.56;48.25
62864;BME280;48954;59.950;11.014;2023-04-29T13:10:23;99029.79;;;8.77;47.55
62864;BME280;48954;59.950;11.014;2023-04-29T13:12:55;99030.23;;;9.18;47.35
62864;BME280;48954;59.950;11.014;2023-04-29T13:15:24;99033.59;;;9.91;46.09
62864;BME280;48954;59.950;11.014;2023-04-29T13:17:51;99031.53;;;10.12;45.47